sensor_id;sensor_type;location;lat;lon;timestamp;P1;durP1;ratioP1;P2;durP2;ratioP2
50851;SDS011;43953;45.508;-122.806;2022-09-02T00:00:06;9.38;;;8.43;;
50851;SDS011;43953;45.508;-122.806;2022-09-02T00:00:41;9.07;;;8.18;;
50851;SDS011;43953;45.508;-122.806;2022-09-02T00:01:15;9.05;;;8.27;;
50851;SDS011;43953;45.508;-122.806;2022-09-02T00:01:58;8.48;;;7.78;;
50851;SDS011;43953;45.508;-122.806;2022-09-02T00:02:29;9.00;;;8.10;;
50851;SDS011;43953;45.508;-122.806;2022-09-02T00:03:02;9.40;;;8.45;;
50851;SDS011;43953;45.508;-122.806;2022-09-02T00:03:34;8.85;;;8.02;;
50851;SDS011;43953;45.508;-122.806;2022-09-02T00:04:08;9.07;;;8.27;;
50851;SDS011;43953;45.508;-122.806;2022-09-02T00:04:43;9.27;;;8.45;;
50851;SDS011;43953;45.508;-122.806;2022-09-02T00:05:15;8.98;;;8.18;;
50851;SDS011;43953;45.508;-122.806;2022-09-02T00:05:47;8.93;;;8.18;;
50851;SDS011;43953;45.508;-122.806;2022-09-02T00:06:19;9.00;;;8.20;;
50851;SDS011;43953;45.508;-122.806;2022-09-02T00:06:51;9.20;;;8.23;;
50851;SDS011;43953;45.508;-122.806;2022-09-02T00:07:24;9.10;;;8.20;;
50851;SDS011;43953;45.508;-122.806;2022-09-02T00:07:56;9.18;;;8.30;;
50851;SDS011;43953;45.508;-122.806;2022-09-02T00:08:28;9.25;;;8.40;;
50851;SDS011;43953;45.508;-122.806;2022-09-02T00:09:03;9.45;;;8.60;;
50851;SDS011;43953;45.508;-122.806;2022-09-02T00:09:36;9.00;;;8.20;;
50851;SDS011;43953;45.508;-122.806;2022-09-02T00:10:10;8.98;;;8.20;;
50851;SDS011;43953;45.508;-122.806;2022-09-02T00:10:42;8.85;;;8.00;;
50851;SDS011;43953;45.508;-122.806;2022-09-02T00:11:16;9.48;;;8.57;;
50851;SDS011;43953;45.508;-122.806;2022-09-02T00:11:50;9.65;;;8.63;;
50851;SDS011;43953;45.508;-122.806;2022-09-02T00:12:22;9.20;;;8.45;;
50851;SDS011;43953;45.508;-122.806;2022-09-02T00:12:54;9.52;;;8.52;;
50851;SDS011;43953;45.508;-122.806;2022-09-02T00:13:26;9.38;;;8.50;;
50851;SDS011;43953;45.508;-122.806;2022-09-02T00:14:00;9.02;;;8.13;;
50851;SDS011;43953;45.508;-122.806;2022-09-02T00:14:35;9.20;;;8.35;;
50851;SDS011;43953;45.508;-122.806;2022-09-02T00:15:09;9.25;;;8.43;;
50851;SDS011;43953;45.508;-122.806;2022-09-02T00:15:41;9.35;;;8.43;;
50851;SDS011;43953;45.508;-122.806;2022-09-02T00:16:13;9.27;;;8.38;;
50851;SDS011;43953;45.508;-122.806;2022-09-02T00:16:45;8.98;;;8.18;;
50851;SDS011;43953;45.508;-122.806;2022-09-02T00:17:20;9.30;;;8.40;;
50851;SDS011;43953;45.508;-122.806;2022-09-02T00:17:52;9.10;;;8.27;;
50851;SDS011;43953;45.508;-122.806;2022-09-02T00:18:24;9.07;;;8.18;;
50851;SDS011;43953;45.508;-122.806;2022-09-02T00:18:57;9.30;;;8.40;;
50851;SDS011;43953;45.508;-122.806;2022-09-02T00:19:30;9.38;;;8.48;;
50851;SDS011;43953;45.508;-122.806;2022-09-02T00:20:02;8.85;;;8.02;;
50851;SDS011;43953;45.508;-122.806;2022-09-02T00:20:34;8.82;;;7.97;;
50851;SDS011;43953;45.508;-122.806;2022-09-02T00:21:06;9.38;;;8.57;;
50851;SDS011;43953;45.508;-122.806;2022-09-02T00:21:38;8.82;;;8.02;;
50851;SDS011;43953;45.508;-122.806;2022-09-02T00:22:10;9.07;;;8.18;;
50851;SDS011;43953;45.508;-122.806;2022-09-02T00:22:41;9.25;;;8.45;;
50851;SDS011;43953;45.508;-122.806;2022-09-02T00:23:13;9.27;;;8.45;;
50851;SDS011;43953;45.508;-122.806;2022-09-02T00:23:46;9.10;;;8.30;;
50851;SDS011;43953;45.508;-122.806;2022-09-02T00:24:19;9.45;;;8.55;;
50851;SDS011;43953;45.508;-122.806;2022-09-02T00:24:51;8.52;;;7.75;;
50851;SDS011;43953;45.508;-122.806;2022-09-02T00:25:23;9.27;;;8.38;;
50851;SDS011;43953;45.508;-122.806;2022-09-02T00:25:56;8.75;;;8.05;;
50851;SDS011;43953;45.508;-122.806;2022-09-02T00:26:28;8.23;;;7.63;;
50851;SDS011;43953;45.508;-122.806;2022-09-02T00:27:00;8.82;;;8.02;;
50851;SDS011;43953;45.508;-122.806;2022-09-02T00:27:32;8.60;;;7.70;;
50851;SDS011;43953;45.508;-122.806;2022-09-02T00:28:04;8.73;;;7.85;;
50851;SDS011;43953;45.508;-122.806;2022-09-02T00:28:36;9.50;;;8.57;;
50851;SDS011;43953;45.508;-122.806;2022-09-02T00:29:09;9.38;;;8.43;;
50851;SDS011;43953;45.508;-122.806;2022-09-02T00:29:41;9.93;;;8.57;;
50851;SDS011;43953;45.508;-122.806;2022-09-02T00:30:12;9.57;;;8.63;;
50851;SDS011;43953;45.508;-122.806;2022-09-02T00:30:44;9.55;;;8.65;;
50851;SDS011;43953;45.508;-122.806;2022-09-02T00:31:16;9.68;;;8.82;;
50851;SDS011;43953;45.508;-122.806;2022-09-02T00:31:48;8.85;;;8.05;;
50851;SDS011;43953;45.508;-122.806;2022-09-02T00:32:20;9.57;;;8.68;;
50851;SDS011;43953;45.508;-122.806;2022-09-02T00:32:52;8.63;;;7.93;;
50851;SDS011;43953;45.508;-122.806;2022-09-02T00:33:24;9.02;;;8.00;;
50851;SDS011;43953;45.508;-122.806;2022-09-02T00:33:56;8.63;;;7.82;;
50851;SDS011;43953;45.508;-122.806;2022-09-02T00:34:27;8.85;;;8.05;;
50851;SDS011;43953;45.508;-122.806;2022-09-02T00:34:59;8.70;;;7.95;;
50851;SDS011;43953;45.508;-122.806;2022-09-02T00:35:31;9.18;;;8.27;;
50851;SDS011;43953;45.508;-122.806;2022-09-02T00:36:03;8.73;;;8.00;;
50851;SDS011;43953;45.508;-122.806;2022-09-02T00:36:36;9.50;;;8.60;;
50851;SDS011;43953;45.508;-122.806;2022-09-02T00:37:07;9.18;;;8.38;;
50851;SDS011;43953;45.508;-122.806;2022-09-02T00:37:39;9.35;;;8.55;;
50851;SDS011;43953;45.508;-122.806;2022-09-02T00:38:11;9.63;;;8.63;;
50851;SDS011;43953;45.508;-122.806;2022-09-02T00:38:43;9.20;;;8.30;;
50851;SDS011;43953;45.508;-122.806;2022-09-02T00:39:15;9.50;;;8.60;;
50851;SDS011;43953;45.508;-122.806;2022-09-02T00:39:46;8.52;;;7.80;;
50851;SDS011;43953;45.508;-122.806;2022-09-02T00:40:18;9.85;;;8.95;;
50851;SDS011;43953;45.508;-122.806;2022-09-02T00:40:50;9.50;;;8.60;;
50851;SDS011;43953;45.508;-122.806;2022-09-02T00:41:24;8.95;;;8.15;;
50851;SDS011;43953;45.508;-122.806;2022-09-02T00:41:57;9.10;;;8.20;;
50851;SDS011;43953;45.508;-122.806;2022-09-02T00:42:31;9.02;;;8.30;;
50851;SDS011;43953;45.508;-122.806;2022-09-02T00:43:05;8.93;;;8.13;;
50851;SDS011;43953;45.508;-122.806;2022-09-02T00:43:42;9.00;;;8.10;;
50851;SDS011;43953;45.508;-122.806;2022-09-02T00:44:21;8.85;;;8.00;;
50851;SDS011;43953;45.508;-122.806;2022-09-02T00:44:53;8.75;;;7.95;;
50851;SDS011;43953;45.508;-122.806;2022-09-02T00:45:25;9.40;;;8.57;;
50851;SDS011;43953;45.508;-122.806;2022-09-02T00:45:57;9.27;;;8.40;;
50851;SDS011;43953;45.508;-122.806;2022-09-02T00:46:30;8.52;;;7.78;;
50851;SDS011;43953;45.508;-122.806;2022-09-02T00:47:02;9.88;;;8.85;;
50851;SDS011;43953;45.508;-122.806;2022-09-02T00:47:34;9.25;;;8.40;;
50851;SDS011;43953;45.508;-122.806;2022-09-02T00:48:06;9.20;;;8.40;;
50851;SDS011;43953;45.508;-122.806;2022-09-02T00:48:39;9.68;;;8.88;;
50851;SDS011;43953;45.508;-122.806;2022-09-02T00:49:17;9.55;;;8.75;;
50851;SDS011;43953;45.508;-122.806;2022-09-02T00:49:55;9.15;;;8.32;;
50851;SDS011;43953;45.508;-122.806;2022-09-02T00:50:30;9.40;;;8.60;;
50851;SDS011;43953;45.508;-122.806;2022-09-02T00:51:04;9.18;;;8.38;;
50851;SDS011;43953;45.508;-122.806;2022-09-02T00:51:45;8.68;;;7.85;;
50851;SDS011;43953;45.508;-122.806;2022-09-02T00:52:45;9.55;;;8.30;;
50851;SDS011;43953;45.508;-122.806;2022-09-02T00:53:20;9.82;;;8.38;;
50851;SDS011;43953;45.508;-122.806;2022-09-02T00:53:52;8.88;;;8.00;;
50851;SDS011;43953;45.508;-122.806;2022-09-02T00:54:25;9.32;;;7.97;;
50851;SDS011;43953;45.508;-122.806;2022-09-02T00:55:21;9.07;;;8.13;;
50851;SDS011;43953;45.508;-122.806;2022-09-02T00:55:54;9.13;;;8.32;;
50851;SDS011;43953;45.508;-122.806;2022-09-02T00:56:27;8.55;;;7.85;;
50851;SDS011;43953;45.508;-122.806;2022-09-02T00:57:02;9.02;;;8.02;;
50851;SDS011;43953;45.508;-122.806;2022-09-02T00:57:40;9.00;;;8.20;;
50851;SDS011;43953;45.508;-122.806;2022-09-02T00:58:23;8.98;;;8.20;;
50851;SDS011;43953;45.508;-122.806;2022-09-02T00:58:59;8.35;;;7.65;;
50851;SDS011;43953;45.508;-122.806;2022-09-02T00:59:52;9.13;;;8.23;;
50851;SDS011;43953;45.508;-122.806;2022-09-02T01:00:26;9.02;;;8.23;;
50851;SDS011;43953;45.508;-122.806;2022-09-02T01:01:00;8.48;;;7.63;;
50851;SDS011;43953;45.508;-122.806;2022-09-02T01:01:31;8.65;;;7.85;;
50851;SDS011;43953;45.508;-122.806;2022-09-02T01:02:03;8.75;;;7.85;;
50851;SDS011;43953;45.508;-122.806;2022-09-02T01:02:38;8.48;;;7.78;;
50851;SDS011;43953;45.508;-122.806;2022-09-02T01:03:13;8.82;;;8.05;;
50851;SDS011;43953;45.508;-122.806;2022-09-02T01:03:48;9.07;;;7.90;;
50851;SDS011;43953;45.508;-122.806;2022-09-02T01:04:20;8.52;;;7.72;;
50851;SDS011;43953;45.508;-122.806;2022-09-02T01:04:52;8.60;;;7.80;;
50851;SDS011;43953;45.508;-122.806;2022-09-02T01:05:29;8.60;;;7.80;;
50851;SDS011;43953;45.508;-122.806;2022-09-02T01:06:04;8.60;;;7.85;;
50851;SDS011;43953;45.508;-122.806;2022-09-02T01:06:36;8.60;;;7.80;;
50851;SDS011;43953;45.508;-122.806;2022-09-02T01:07:09;8.07;;;7.38;;
50851;SDS011;43953;45.508;-122.806;2022-09-02T01:07:41;9.52;;;8.63;;
50851;SDS011;43953;45.508;-122.806;2022-09-02T01:08:16;8.95;;;8.05;;
50851;SDS011;43953;45.508;-122.806;2022-09-02T01:08:57;9.15;;;7.75;;
50851;SDS011;43953;45.508;-122.806;2022-09-02T01:09:34;9.10;;;8.20;;
50851;SDS011;43953;45.508;-122.806;2022-09-02T01:10:09;8.80;;;8.00;;
50851;SDS011;43953;45.508;-122.806;2022-09-02T01:10:44;8.43;;;7.60;;
50851;SDS011;43953;45.508;-122.806;2022-09-02T01:11:16;8.52;;;7.72;;
50851;SDS011;43953;45.508;-122.806;2022-09-02T01:11:49;9.43;;;8.35;;
50851;SDS011;43953;45.508;-122.806;2022-09-02T01:12:24;9.50;;;8.07;;
50851;SDS011;43953;45.508;-122.806;2022-09-02T01:12:58;8.95;;;8.07;;
50851;SDS011;43953;45.508;-122.806;2022-09-02T01:13:41;8.90;;;8.10;;
50851;SDS011;43953;45.508;-122.806;2022-09-02T01:14:14;8.95;;;8.13;;
50851;SDS011;43953;45.508;-122.806;2022-09-02T01:14:46;9.10;;;8.15;;
50851;SDS011;43953;45.508;-122.806;2022-09-02T01:15:18;9.10;;;8.38;;
50851;SDS011;43953;45.508;-122.806;2022-09-02T01:15:55;9.35;;;8.45;;
50851;SDS011;43953;45.508;-122.806;2022-09-02T01:16:41;8.40;;;7.70;;
50851;SDS011;43953;45.508;-122.806;2022-09-02T01:17:18;8.80;;;8.00;;
50851;SDS011;43953;45.508;-122.806;2022-09-02T01:17:50;8.77;;;7.97;;
50851;SDS011;43953;45.508;-122.806;2022-09-02T01:18:28;9.27;;;8.10;;
50851;SDS011;43953;45.508;-122.806;2022-09-02T01:19:01;8.65;;;7.85;;
50851;SDS011;43953;45.508;-122.806;2022-09-02T01:19:43;8.73;;;7.93;;
50851;SDS011;43953;45.508;-122.806;2022-09-02T01:20:22;9.13;;;8.32;;
50851;SDS011;43953;45.508;-122.806;2022-09-02T01:20:56;9.10;;;8.32;;
50851;SDS011;43953;45.508;-122.806;2022-09-02T01:21:29;8.43;;;7.60;;
50851;SDS011;43953;45.508;-122.806;2022-09-02T01:22:01;8.98;;;7.97;;
50851;SDS011;43953;45.508;-122.806;2022-09-02T01:22:45;8.70;;;7.90;;
50851;SDS011;43953;45.508;-122.806;2022-09-02T01:23:17;9.02;;;8.23;;
50851;SDS011;43953;45.508;-122.806;2022-09-02T01:23:50;8.90;;;8.10;;
50851;SDS011;43953;45.508;-122.806;2022-09-02T01:24:25;9.25;;;8.40;;
50851;SDS011;43953;45.508;-122.806;2022-09-02T01:25:06;8.43;;;7.72;;
50851;SDS011;43953;45.508;-122.806;2022-09-02T01:25:42;8.90;;;8.10;;
50851;SDS011;43953;45.508;-122.806;2022-09-02T01:26:14;8.27;;;7.53;;
50851;SDS011;43953;45.508;-122.806;2022-09-02T01:26:46;8.00;;;7.30;;
50851;SDS011;43953;45.508;-122.806;2022-09-02T01:27:21;10.13;;;8.30;;
50851;SDS011;43953;45.508;-122.806;2022-09-02T01:27:57;8.50;;;7.72;;
50851;SDS011;43953;45.508;-122.806;2022-09-02T01:28:35;8.93;;;8.13;;
50851;SDS011;43953;45.508;-122.806;2022-09-02T01:29:07;8.50;;;7.80;;
50851;SDS011;43953;45.508;-122.806;2022-09-02T01:29:38;8.82;;;7.93;;
50851;SDS011;43953;45.508;-122.806;2022-09-02T01:30:11;8.98;;;7.80;;
50851;SDS011;43953;45.508;-122.806;2022-09-02T01:30:48;8.18;;;7.38;;
50851;SDS011;43953;45.508;-122.806;2022-09-02T01:31:21;8.95;;;8.15;;
50851;SDS011;43953;45.508;-122.806;2022-09-02T01:31:53;9.95;;;7.88;;
50851;SDS011;43953;45.508;-122.806;2022-09-02T01:32:26;8.88;;;8.07;;
50851;SDS011;43953;45.508;-122.806;2022-09-02T01:32:59;9.00;;;8.10;;
50851;SDS011;43953;45.508;-122.806;2022-09-02T01:33:31;8.68;;;7.78;;
50851;SDS011;43953;45.508;-122.806;2022-09-02T01:34:04;10.98;;;7.93;;
50851;SDS011;43953;45.508;-122.806;2022-09-02T01:34:36;8.93;;;7.97;;
50851;SDS011;43953;45.508;-122.806;2022-09-02T01:35:08;9.15;;;8.30;;
50851;SDS011;43953;45.508;-122.806;2022-09-02T01:35:42;8.70;;;7.93;;
50851;SDS011;43953;45.508;-122.806;2022-09-02T01:36:15;9.02;;;8.18;;
50851;SDS011;43953;45.508;-122.806;2022-09-02T01:36:46;9.02;;;8.18;;
50851;SDS011;43953;45.508;-122.806;2022-09-02T01:37:19;8.68;;;7.88;;
50851;SDS011;43953;45.508;-122.806;2022-09-02T01:37:53;9.05;;;8.15;;
50851;SDS011;43953;45.508;-122.806;2022-09-02T01:38:27;8.68;;;7.97;;
50851;SDS011;43953;45.508;-122.806;2022-09-02T01:38:59;10.88;;;8.18;;
50851;SDS011;43953;45.508;-122.806;2022-09-02T01:39:31;8.30;;;7.50;;
50851;SDS011;43953;45.508;-122.806;2022-09-02T01:40:02;8.70;;;7.90;;
50851;SDS011;43953;45.508;-122.806;2022-09-02T01:40:36;8.43;;;7.72;;
50851;SDS011;43953;45.508;-122.806;2022-09-02T01:41:07;9.75;;;8.80;;
50851;SDS011;43953;45.508;-122.806;2022-09-02T01:41:39;9.00;;;8.10;;
50851;SDS011;43953;45.508;-122.806;2022-09-02T01:42:11;9.10;;;8.20;;
50851;SDS011;43953;45.508;-122.806;2022-09-02T01:42:46;9.25;;;8.43;;
50851;SDS011;43953;45.508;-122.806;2022-09-02T01:43:24;8.95;;;8.05;;
50851;SDS011;43953;45.508;-122.806;2022-09-02T01:43:57;8.85;;;8.00;;
50851;SDS011;43953;45.508;-122.806;2022-09-02T01:44:29;9.18;;;8.38;;
50851;SDS011;43953;45.508;-122.806;2022-09-02T01:45:00;8.68;;;7.93;;
50851;SDS011;43953;45.508;-122.806;2022-09-02T01:45:34;8.48;;;7.53;;
50851;SDS011;43953;45.508;-122.806;2022-09-02T01:46:07;9.40;;;8.30;;
50851;SDS011;43953;45.508;-122.806;2022-09-02T01:46:39;8.25;;;7.55;;
50851;SDS011;43953;45.508;-122.806;2022-09-02T01:47:15;9.15;;;8.38;;
50851;SDS011;43953;45.508;-122.806;2022-09-02T01:47:49;8.38;;;7.65;;
50851;SDS011;43953;45.508;-122.806;2022-09-02T01:48:22;8.77;;;7.80;;
50851;SDS011;43953;45.508;-122.806;2022-09-02T01:48:54;9.25;;;8.25;;
50851;SDS011;43953;45.508;-122.806;2022-09-02T01:49:26;8.80;;;7.90;;
50851;SDS011;43953;45.508;-122.806;2022-09-02T01:49:57;8.63;;;7.75;;
50851;SDS011;43953;45.508;-122.806;2022-09-02T01:50:29;9.50;;;8.70;;
50851;SDS011;43953;45.508;-122.806;2022-09-02T01:51:02;8.85;;;8.10;;
50851;SDS011;43953;45.508;-122.806;2022-09-02T01:51:35;8.52;;;7.78;;
50851;SDS011;43953;45.508;-122.806;2022-09-02T01:52:08;8.68;;;7.93;;
50851;SDS011;43953;45.508;-122.806;2022-09-02T01:52:39;8.82;;;8.02;;
50851;SDS011;43953;45.508;-122.806;2022-09-02T01:53:11;9.27;;;8.38;;
50851;SDS011;43953;45.508;-122.806;2022-09-02T01:53:44;8.65;;;7.75;;
50851;SDS011;43953;45.508;-122.806;2022-09-02T01:54:16;8.55;;;7.75;;
50851;SDS011;43953;45.508;-122.806;2022-09-02T01:54:48;8.35;;;7.63;;
50851;SDS011;43953;45.508;-122.806;2022-09-02T01:55:19;9.00;;;8.20;;
50851;SDS011;43953;45.508;-122.806;2022-09-02T01:55:52;9.25;;;8.32;;
50851;SDS011;43953;45.508;-122.806;2022-09-02T01:56:24;9.18;;;8.38;;
50851;SDS011;43953;45.508;-122.806;2022-09-02T01:56:56;9.43;;;8.13;;
50851;SDS011;43953;45.508;-122.806;2022-09-02T01:57:28;8.95;;;8.05;;
50851;SDS011;43953;45.508;-122.806;2022-09-02T01:58:00;9.25;;;8.40;;
50851;SDS011;43953;45.508;-122.806;2022-09-02T01:58:32;8.88;;;8.07;;
50851;SDS011;43953;45.508;-122.806;2022-09-02T01:59:05;8.85;;;8.05;;
50851;SDS011;43953;45.508;-122.806;2022-09-02T01:59:37;9.68;;;8.77;;
50851;SDS011;43953;45.508;-122.806;2022-09-02T02:00:10;9.07;;;8.18;;
50851;SDS011;43953;45.508;-122.806;2022-09-02T02:00:43;9.10;;;8.30;;
50851;SDS011;43953;45.508;-122.806;2022-09-02T02:01:15;8.63;;;7.90;;
50851;SDS011;43953;45.508;-122.806;2022-09-02T02:01:47;9.70;;;8.82;;
50851;SDS011;43953;45.508;-122.806;2022-09-02T02:02:19;8.93;;;8.13;;
50851;SDS011;43953;45.508;-122.806;2022-09-02T02:02:51;9.95;;;7.95;;
50851;SDS011;43953;45.508;-122.806;2022-09-02T02:03:23;9.27;;;8.48;;
50851;SDS011;43953;45.508;-122.806;2022-09-02T02:03:55;9.35;;;8.48;;
50851;SDS011;43953;45.508;-122.806;2022-09-02T02:04:27;8.95;;;7.93;;
50851;SDS011;43953;45.508;-122.806;2022-09-02T02:04:59;8.88;;;8.07;;
50851;SDS011;43953;45.508;-122.806;2022-09-02T02:05:31;9.07;;;8.18;;
50851;SDS011;43953;45.508;-122.806;2022-09-02T02:06:07;8.85;;;8.15;;
50851;SDS011;43953;45.508;-122.806;2022-09-02T02:06:43;9.10;;;8.25;;
50851;SDS011;43953;45.508;-122.806;2022-09-02T02:07:18;9.00;;;8.20;;
50851;SDS011;43953;45.508;-122.806;2022-09-02T02:07:52;9.27;;;8.40;;
50851;SDS011;43953;45.508;-122.806;2022-09-02T02:08:24;9.15;;;8.35;;
50851;SDS011;43953;45.508;-122.806;2022-09-02T02:08:55;9.45;;;8.50;;
50851;SDS011;43953;45.508;-122.806;2022-09-02T02:09:27;8.95;;;8.15;;
50851;SDS011;43953;45.508;-122.806;2022-09-02T02:09:59;8.73;;;7.93;;
50851;SDS011;43953;45.508;-122.806;2022-09-02T02:10:31;9.15;;;8.25;;
50851;SDS011;43953;45.508;-122.806;2022-09-02T02:11:02;9.25;;;8.45;;
50851;SDS011;43953;45.508;-122.806;2022-09-02T02:11:35;9.00;;;8.10;;
50851;SDS011;43953;45.508;-122.806;2022-09-02T02:12:07;9.18;;;8.38;;
50851;SDS011;43953;45.508;-122.806;2022-09-02T02:12:39;9.57;;;8.68;;
50851;SDS011;43953;45.508;-122.806;2022-09-02T02:13:11;8.80;;;7.97;;
50851;SDS011;43953;45.508;-122.806;2022-09-02T02:13:43;8.98;;;8.18;;
50851;SDS011;43953;45.508;-122.806;2022-09-02T02:14:15;9.45;;;8.57;;
50851;SDS011;43953;45.508;-122.806;2022-09-02T02:14:47;10.20;;;8.43;;
50851;SDS011;43953;45.508;-122.806;2022-09-02T02:15:20;10.27;;;8.25;;
50851;SDS011;43953;45.508;-122.806;2022-09-02T02:15:53;8.73;;;7.93;;
50851;SDS011;43953;45.508;-122.806;2022-09-02T02:16:24;8.63;;;7.82;;
50851;SDS011;43953;45.508;-122.806;2022-09-02T02:16:56;9.00;;;8.13;;
50851;SDS011;43953;45.508;-122.806;2022-09-02T02:17:28;9.00;;;8.13;;
50851;SDS011;43953;45.508;-122.806;2022-09-02T02:18:00;9.40;;;8.15;;
50851;SDS011;43953;45.508;-122.806;2022-09-02T02:18:32;9.10;;;7.93;;
50851;SDS011;43953;45.508;-122.806;2022-09-02T02:19:04;9.18;;;8.27;;
50851;SDS011;43953;45.508;-122.806;2022-09-02T02:19:36;10.05;;;8.57;;
50851;SDS011;43953;45.508;-122.806;2022-09-02T02:20:08;8.93;;;8.13;;
50851;SDS011;43953;45.508;-122.806;2022-09-02T02:20:41;9.45;;;8.55;;
50851;SDS011;43953;45.508;-122.806;2022-09-02T02:21:14;9.45;;;8.63;;
50851;SDS011;43953;45.508;-122.806;2022-09-02T02:21:46;9.10;;;8.20;;
50851;SDS011;43953;45.508;-122.806;2022-09-02T02:22:17;9.60;;;8.60;;
50851;SDS011;43953;45.508;-122.806;2022-09-02T02:22:50;10.20;;;9.20;;
50851;SDS011;43953;45.508;-122.806;2022-09-02T02:23:22;9.20;;;8.30;;
50851;SDS011;43953;45.508;-122.806;2022-09-02T02:23:54;9.75;;;8.27;;
50851;SDS011;43953;45.508;-122.806;2022-09-02T02:24:27;10.02;;;9.02;;
50851;SDS011;43953;45.508;-122.806;2022-09-02T02:24:58;9.65;;;8.73;;
50851;SDS011;43953;45.508;-122.806;2022-09-02T02:25:31;9.30;;;8.50;;
50851;SDS011;43953;45.508;-122.806;2022-09-02T02:26:03;9.88;;;8.88;;
50851;SDS011;43953;45.508;-122.806;2022-09-02T02:26:35;10.15;;;8.43;;
50851;SDS011;43953;45.508;-122.806;2022-09-02T02:27:07;9.80;;;8.80;;
50851;SDS011;43953;45.508;-122.806;2022-09-02T02:27:39;9.63;;;8.75;;
50851;SDS011;43953;45.508;-122.806;2022-09-02T02:28:11;9.77;;;8.88;;
50851;SDS011;43953;45.508;-122.806;2022-09-02T02:28:44;9.55;;;8.55;;
50851;SDS011;43953;45.508;-122.806;2022-09-02T02:29:15;10.48;;;9.48;;
50851;SDS011;43953;45.508;-122.806;2022-09-02T02:29:47;9.38;;;8.48;;
50851;SDS011;43953;45.508;-122.806;2022-09-02T02:30:19;9.80;;;8.90;;
50851;SDS011;43953;45.508;-122.806;2022-09-02T02:30:51;10.50;;;9.50;;
50851;SDS011;43953;45.508;-122.806;2022-09-02T02:31:24;10.25;;;9.18;;
50851;SDS011;43953;45.508;-122.806;2022-09-02T02:31:56;11.18;;;8.88;;
50851;SDS011;43953;45.508;-122.806;2022-09-02T02:32:28;10.75;;;9.65;;
50851;SDS011;43953;45.508;-122.806;2022-09-02T02:33:00;9.55;;;8.65;;
50851;SDS011;43953;45.508;-122.806;2022-09-02T02:33:32;9.65;;;8.75;;
50851;SDS011;43953;45.508;-122.806;2022-09-02T02:34:05;11.02;;;8.95;;
50851;SDS011;43953;45.508;-122.806;2022-09-02T02:34:36;10.25;;;9.23;;
50851;SDS011;43953;45.508;-122.806;2022-09-02T02:35:09;10.75;;;9.65;;
50851;SDS011;43953;45.508;-122.806;2022-09-02T02:35:41;10.18;;;9.05;;
50851;SDS011;43953;45.508;-122.806;2022-09-02T02:36:14;10.32;;;9.27;;
50851;SDS011;43953;45.508;-122.806;2022-09-02T02:36:46;10.63;;;9.48;;
50851;SDS011;43953;45.508;-122.806;2022-09-02T02:37:17;9.50;;;8.60;;
50851;SDS011;43953;45.508;-122.806;2022-09-02T02:37:50;9.48;;;8.57;;
50851;SDS011;43953;45.508;-122.806;2022-09-02T02:38:22;10.10;;;9.10;;
50851;SDS011;43953;45.508;-122.806;2022-09-02T02:38:54;9.85;;;8.85;;
50851;SDS011;43953;45.508;-122.806;2022-09-02T02:39:26;9.85;;;8.95;;
50851;SDS011;43953;45.508;-122.806;2022-09-02T02:39:57;10.00;;;9.05;;
50851;SDS011;43953;45.508;-122.806;2022-09-02T02:40:29;9.82;;;8.82;;
50851;SDS011;43953;45.508;-122.806;2022-09-02T02:41:01;10.38;;;9.30;;
50851;SDS011;43953;45.508;-122.806;2022-09-02T02:41:35;10.05;;;9.07;;
50851;SDS011;43953;45.508;-122.806;2022-09-02T02:42:07;9.77;;;8.88;;
50851;SDS011;43953;45.508;-122.806;2022-09-02T02:42:41;11.20;;;9.82;;
50851;SDS011;43953;45.508;-122.806;2022-09-02T02:43:13;9.50;;;8.70;;
50851;SDS011;43953;45.508;-122.806;2022-09-02T02:43:45;10.15;;;9.20;;
50851;SDS011;43953;45.508;-122.806;2022-09-02T02:44:17;9.80;;;8.90;;
50851;SDS011;43953;45.508;-122.806;2022-09-02T02:44:49;9.77;;;8.88;;
50851;SDS011;43953;45.508;-122.806;2022-09-02T02:45:21;10.30;;;9.07;;
50851;SDS011;43953;45.508;-122.806;2022-09-02T02:45:54;10.13;;;9.13;;
50851;SDS011;43953;45.508;-122.806;2022-09-02T02:46:25;10.60;;;9.60;;
50851;SDS011;43953;45.508;-122.806;2022-09-02T02:46:57;9.60;;;8.73;;
50851;SDS011;43953;45.508;-122.806;2022-09-02T02:47:29;10.77;;;9.68;;
50851;SDS011;43953;45.508;-122.806;2022-09-02T02:48:01;10.88;;;9.45;;
50851;SDS011;43953;45.508;-122.806;2022-09-02T02:48:33;10.13;;;8.90;;
50851;SDS011;43953;45.508;-122.806;2022-09-02T02:49:06;10.48;;;9.48;;
50851;SDS011;43953;45.508;-122.806;2022-09-02T02:49:39;11.27;;;9.30;;
50851;SDS011;43953;45.508;-122.806;2022-09-02T02:50:12;10.60;;;9.52;;
50851;SDS011;43953;45.508;-122.806;2022-09-02T02:50:46;10.27;;;9.27;;
50851;SDS011;43953;45.508;-122.806;2022-09-02T02:51:18;9.88;;;8.88;;
50851;SDS011;43953;45.508;-122.806;2022-09-02T02:51:50;9.65;;;8.75;;
50851;SDS011;43953;45.508;-122.806;2022-09-02T02:52:22;10.45;;;9.45;;
50851;SDS011;43953;45.508;-122.806;2022-09-02T02:52:53;9.73;;;8.77;;
50851;SDS011;43953;45.508;-122.806;2022-09-02T02:53:26;10.40;;;9.02;;
50851;SDS011;43953;45.508;-122.806;2022-09-02T02:53:59;9.88;;;8.98;;
50851;SDS011;43953;45.508;-122.806;2022-09-02T02:54:31;10.00;;;8.95;;
50851;SDS011;43953;45.508;-122.806;2022-09-02T02:55:03;10.48;;;9.38;;
50851;SDS011;43953;45.508;-122.806;2022-09-02T02:55:36;10.50;;;9.13;;
50851;SDS011;43953;45.508;-122.806;2022-09-02T02:56:08;10.15;;;9.23;;
50851;SDS011;43953;45.508;-122.806;2022-09-02T02:56:41;9.32;;;8.43;;
50851;SDS011;43953;45.508;-122.806;2022-09-02T02:57:12;9.50;;;8.60;;
50851;SDS011;43953;45.508;-122.806;2022-09-02T02:57:44;10.60;;;8.82;;
50851;SDS011;43953;45.508;-122.806;2022-09-02T02:58:16;10.20;;;9.27;;
50851;SDS011;43953;45.508;-122.806;2022-09-02T02:58:48;9.35;;;8.55;;
50851;SDS011;43953;45.508;-122.806;2022-09-02T02:59:19;10.20;;;9.15;;
50851;SDS011;43953;45.508;-122.806;2022-09-02T02:59:51;10.65;;;9.50;;
50851;SDS011;43953;45.508;-122.806;2022-09-02T03:00:25;9.80;;;8.82;;
50851;SDS011;43953;45.508;-122.806;2022-09-02T03:00:59;9.73;;;8.82;;
50851;SDS011;43953;45.508;-122.806;2022-09-02T03:01:32;9.88;;;8.88;;
50851;SDS011;43953;45.508;-122.806;2022-09-02T03:02:04;10.00;;;9.05;;
50851;SDS011;43953;45.508;-122.806;2022-09-02T03:02:37;10.23;;;9.23;;
50851;SDS011;43953;45.508;-122.806;2022-09-02T03:03:09;10.13;;;9.13;;
50851;SDS011;43953;45.508;-122.806;2022-09-02T03:03:41;10.13;;;9.00;;
50851;SDS011;43953;45.508;-122.806;2022-09-02T03:04:14;9.70;;;8.60;;
50851;SDS011;43953;45.508;-122.806;2022-09-02T03:04:46;9.57;;;8.68;;
50851;SDS011;43953;45.508;-122.806;2022-09-02T03:05:19;10.43;;;9.43;;
50851;SDS011;43953;45.508;-122.806;2022-09-02T03:05:51;10.38;;;9.13;;
50851;SDS011;43953;45.508;-122.806;2022-09-02T03:06:24;11.35;;;8.77;;
50851;SDS011;43953;45.508;-122.806;2022-09-02T03:06:56;10.10;;;9.02;;
50851;SDS011;43953;45.508;-122.806;2022-09-02T03:07:28;10.32;;;9.32;;
50851;SDS011;43953;45.508;-122.806;2022-09-02T03:08:00;9.93;;;8.63;;
50851;SDS011;43953;45.508;-122.806;2022-09-02T03:08:33;9.73;;;8.77;;
50851;SDS011;43953;45.508;-122.806;2022-09-02T03:09:05;9.85;;;8.93;;
50851;SDS011;43953;45.508;-122.806;2022-09-02T03:09:37;10.00;;;9.00;;
50851;SDS011;43953;45.508;-122.806;2022-09-02T03:10:09;10.35;;;9.13;;
50851;SDS011;43953;45.508;-122.806;2022-09-02T03:10:43;11.18;;;8.85;;